createdAt,value
2022-09-09T00:01:35.703Z,1.00
2022-09-09T00:04:30.996Z,1.00
2022-09-09T00:07:19.002Z,1.00
2022-09-09T00:10:01.991Z,1.00
2022-09-09T00:12:42.233Z,99.10
2022-09-09T00:15:14.572Z,99.90
2022-09-09T00:17:48.837Z,99.90
2022-09-09T00:20:41.188Z,99.90
2022-09-09T00:23:20.699Z,99.90
2022-09-09T00:25:56.678Z,99.90
2022-09-09T00:28:30.196Z,99.90
2022-09-09T00:30:59.267Z,1.00
2022-09-09T00:33:28.231Z,1.00
2022-09-09T00:35:59.234Z,1.00
2022-09-09T00:38:29.593Z,1.00
2022-09-09T00:41:03.011Z,1.00
2022-09-09T00:43:32.839Z,1.00
2022-09-09T00:46:19.258Z,1.00
2022-09-09T00:49:03.302Z,1.00
2022-09-09T00:51:36.180Z,1.00
2022-09-09T00:54:23.639Z,1.00
2022-09-09T00:57:08.830Z,1.00
2022-09-09T00:59:51.401Z,99.90
2022-09-09T01:02:58.057Z,57.60
2022-09-09T01:05:34.277Z,99.90
2022-09-09T01:08:12.981Z,99.90
2022-09-09T01:10:54.539Z,99.90
2022-09-09T01:13:31.811Z,1.00
2022-09-09T01:16:05.134Z,1.00
2022-09-09T01:18:38.057Z,1.00
2022-09-09T01:21:14.564Z,1.00
2022-09-09T01:24:13.463Z,1.00
2022-09-09T01:27:14.678Z,79.30
2022-09-09T01:29:41.867Z,99.90
2022-09-09T01:32:45.483Z,65.90
2022-09-09T01:35:30.099Z,37.60
2022-09-09T01:37:57.760Z,99.90
2022-09-09T01:40:26.667Z,99.90
2022-09-09T01:42:55.488Z,99.90
2022-09-09T01:45:24.314Z,99.90
2022-09-09T01:47:53.715Z,1.00
2022-09-09T01:50:29.003Z,99.90
2022-09-09T01:52:59.790Z,1.00
2022-09-09T01:55:31.923Z,1.00
2022-09-09T01:58:21.164Z,1.00
2022-09-09T02:01:06.349Z,1.00
2022-09-09T02:03:37.067Z,99.90
2022-09-09T02:06:20.555Z,1.00
2022-09-09T02:08:56.910Z,1.00
2022-09-09T02:11:29.859Z,1.00
2022-09-09T02:14:17.330Z,1.00
2022-09-09T02:16:58.082Z,1.00
2022-09-09T02:19:47.026Z,87.50
2022-09-09T02:22:25.317Z,99.90
2022-09-09T02:24:57.177Z,99.90
2022-09-09T02:27:27.222Z,99.90
2022-09-09T02:29:57.791Z,99.90
2022-09-09T02:32:40.454Z,14.40
2022-09-09T02:35:15.453Z,1.00
2022-09-09T02:37:48.902Z,1.00
2022-09-09T02:40:17.298Z,1.00
2022-09-09T02:42:50.216Z,1.00
2022-09-09T02:45:22.093Z,1.00
2022-09-09T02:48:06.013Z,1.00
2022-09-09T02:50:46.845Z,1.00
2022-09-09T02:53:25.862Z,1.00
2022-09-09T02:56:05.408Z,1.00
2022-09-09T02:58:35.770Z,99.90
2022-09-09T03:01:06.264Z,99.90
2022-09-09T03:03:33.651Z,99.90
2022-09-09T03:06:06.688Z,99.90
2022-09-09T03:08:33.664Z,99.90
2022-09-09T03:11:02.428Z,99.90
2022-09-09T03:13:32.564Z,99.90
2022-09-09T03:15:59.833Z,99.90
2022-09-09T03:18:29.148Z,99.90
2022-09-09T03:20:56.211Z,99.90
2022-09-09T03:23:23.936Z,99.90
2022-09-09T03:25:52.260Z,99.90
2022-09-09T03:28:32.057Z,12.80
2022-09-09T03:31:02.102Z,59.30
2022-09-09T03:33:32.629Z,1.00
2022-09-09T03:35:59.841Z,1.00
2022-09-09T03:38:26.919Z,8.70
2022-09-09T03:40:56.576Z,1.00
2022-09-09T03:43:25.519Z,1.00
2022-09-09T03:45:54.515Z,1.00
2022-09-09T03:48:21.473Z,1.00
2022-09-09T03:50:49.959Z,35.30
2022-09-09T03:53:18.046Z,33.80
2022-09-09T03:55:46.682Z,99.90
2022-09-09T03:58:15.728Z,41.70
2022-09-09T04:00:44.158Z,1.00
2022-09-09T04:03:11.936Z,1.00
2022-09-09T04:05:41.825Z,1.00
2022-09-09T04:08:09.390Z,1.00
2022-09-09T04:10:39.516Z,1.00
2022-09-09T04:13:06.775Z,99.90
2022-09-09T04:15:34.170Z,99.90
2022-09-09T04:18:01.609Z,1.00
2022-09-09T04:20:28.794Z,99.90
2022-09-09T04:22:55.701Z,99.90
2022-09-09T04:25:22.787Z,99.90
2022-09-09T04:27:55.858Z,1.00
2022-09-09T04:30:23.367Z,99.90
2022-09-09T04:32:50.338Z,99.90
2022-09-09T04:35:17.507Z,40.50
2022-09-09T04:37:45.959Z,97.70
2022-09-09T04:40:13.132Z,99.90
2022-09-09T04:42:40.495Z,99.90
2022-09-09T04:45:08.125Z,99.90
2022-09-09T04:47:36.919Z,60.70
2022-09-09T04:50:04.269Z,1.00
2022-09-09T04:52:31.155Z,1.00
2022-09-09T04:54:58.429Z,1.00
2022-09-09T04:57:25.643Z,1.00
2022-09-09T04:59:52.598Z,1.00
2022-09-09T05:02:19.567Z,1.00
2022-09-09T05:04:46.514Z,1.00
2022-09-09T05:07:15.766Z,1.00
2022-09-09T05:09:43.619Z,1.00
2022-09-09T05:12:10.505Z,1.00
2022-09-09T05:14:41.686Z,1.00
2022-09-09T05:17:09.079Z,1.00
2022-09-09T05:19:38.193Z,1.00
2022-09-09T05:22:05.904Z,1.00
2022-09-09T05:24:40.950Z,99.90
2022-09-09T05:27:08.331Z,1.00
2022-09-09T05:29:35.235Z,1.00
2022-09-09T05:32:04.863Z,1.00
2022-09-09T05:34:31.956Z,1.00
2022-09-09T05:36:59.360Z,1.00
2022-09-09T05:39:26.826Z,1.00
2022-09-09T05:41:54.513Z,1.00
2022-09-09T05:44:24.347Z,1.00
2022-09-09T05:46:51.389Z,1.00
2022-09-09T05:49:18.275Z,1.00
2022-09-09T05:51:45.471Z,1.00
2022-09-09T05:54:16.444Z,1.00
2022-09-09T05:56:51.438Z,99.90
2022-09-09T05:59:19.402Z,99.90
2022-09-09T06:01:46.607Z,99.90
2022-09-09T06:04:25.789Z,99.90
2022-09-09T06:06:53.313Z,99.90
2022-09-09T06:09:22.497Z,99.90
2022-09-09T06:11:50.023Z,99.90
2022-09-09T06:14:18.960Z,99.90
2022-09-09T06:16:49.369Z,99.90
2022-09-09T06:19:22.302Z,99.90
2022-09-09T06:21:50.078Z,99.90
2022-09-09T06:24:18.444Z,99.90
2022-09-09T06:26:46.319Z,99.90
2022-09-09T06:29:18.067Z,99.90
2022-09-09T06:31:45.812Z,99.90
2022-09-09T06:34:24.318Z,1.00
2022-09-09T06:36:58.725Z,99.90
2022-09-09T06:39:27.832Z,99.90
2022-09-09T06:41:55.360Z,99.90
2022-09-09T06:44:41.364Z,99.90
2022-09-09T06:47:12.824Z,99.90
2022-09-09T06:49:41.121Z,21.90
2022-09-09T06:52:10.684Z,1.00
2022-09-09T06:54:38.487Z,1.00
2022-09-09T06:57:33.564Z,1.00
2022-09-09T06:59:55.467Z,1.00
2022-09-09T07:02:22.733Z,99.90
2022-09-09T07:04:52.022Z,99.90
2022-09-09T07:07:19.174Z,99.90
2022-09-09T07:09:47.128Z,99.90
2022-09-09T07:12:14.329Z,99.90
2022-09-09T07:14:48.369Z,99.90
2022-09-09T07:17:15.436Z,99.90
2022-09-09T07:19:43.324Z,99.90
2022-09-09T07:22:11.658Z,99.90
2022-09-09T07:24:39.263Z,99.90
2022-09-09T07:27:07.360Z,99.90
2022-09-09T07:29:35.930Z,99.90
2022-09-09T07:32:04.801Z,99.90
2022-09-09T07:34:36.024Z,99.90
2022-09-09T07:37:03.102Z,1.10
2022-09-09T07:39:30.813Z,1.00
2022-09-09T07:41:59.065Z,1.00
2022-09-09T07:44:27.983Z,1.00
2022-09-09T07:47:03.618Z,1.00
2022-09-09T07:49:35.941Z,1.00
2022-09-09T07:52:04.938Z,1.00
2022-09-09T07:54:33.794Z,1.00
2022-09-09T07:57:05.252Z,1.00
2022-09-09T07:59:34.580Z,1.00
2022-09-09T08:02:02.033Z,1.00
2022-09-09T08:04:31.873Z,1.00
2022-09-09T08:07:01.081Z,1.00
2022-09-09T08:09:30.431Z,1.00
2022-09-09T08:12:10.334Z,1.00
2022-09-09T08:14:37.252Z,1.00
2022-09-09T08:17:04.304Z,99.90
2022-09-09T08:19:36.716Z,99.90
2022-09-09T08:22:08.658Z,99.90
2022-09-09T08:24:37.096Z,47.20
2022-09-09T08:27:04.280Z,24.90
2022-09-09T08:29:31.468Z,24.30
2022-09-09T08:31:59.372Z,95.50
2022-09-09T08:34:29.009Z,31.00
2022-09-09T08:36:58.317Z,3.30
2022-09-09T08:39:33.377Z,1.00
2022-09-09T08:42:01.490Z,1.00
2022-09-09T08:44:57.915Z,55.10
2022-09-09T08:47:50.306Z,82.70
2022-09-09T08:50:36.866Z,99.90
2022-09-09T08:53:17.531Z,43.10
2022-09-09T08:56:04.511Z,1.00
2022-09-09T08:58:49.983Z,1.00
2022-09-09T09:01:42.363Z,13.90
2022-09-09T09:04:34.280Z,1.00
2022-09-09T09:07:10.964Z,1.00
2022-09-09T09:10:00.175Z,57.00
2022-09-09T09:12:33.722Z,50.20
2022-09-09T09:15:00.864Z,21.40
2022-09-09T09:17:32.376Z,27.40
2022-09-09T09:20:00.691Z,72.00
2022-09-09T09:22:52.063Z,62.90
2022-09-09T09:25:27.736Z,39.20
2022-09-09T09:28:06.168Z,2.80
2022-09-09T09:30:43.059Z,17.90
2022-09-09T09:33:41.526Z,1.00
2022-09-09T09:36:09.428Z,1.00
2022-09-09T09:41:35.854Z,1.00
2022-09-09T09:44:05.452Z,1.00
2022-09-09T09:46:33.265Z,1.00
2022-09-09T09:49:10.994Z,1.00
2022-09-09T09:51:39.493Z,1.00
2022-09-09T09:54:24.029Z,1.00
2022-09-09T09:56:55.421Z,1.00
2022-09-09T09:59:39.224Z,1.00
2022-09-09T10:02:14.074Z,1.00
2022-09-09T10:04:42.289Z,1.00
2022-09-09T10:07:21.098Z,1.00
2022-09-09T10:09:56.702Z,1.00
2022-09-09T10:12:45.192Z,1.00
2022-09-09T10:15:47.302Z,1.00
2022-09-09T10:18:48.446Z,1.00
2022-09-09T10:21:33.548Z,1.00
2022-09-09T10:24:41.085Z,1.00
2022-09-09T10:27:26.890Z,1.00
2022-09-09T10:30:11.079Z,1.00
2022-09-09T10:32:44.094Z,1.00
2022-09-09T10:35:40.161Z,1.00
2022-09-09T10:38:14.943Z,1.00
2022-09-09T10:40:49.717Z,1.00
2022-09-09T10:43:22.468Z,1.00
2022-09-09T10:46:23.883Z,1.00
2022-09-09T10:49:19.436Z,1.00
2022-09-09T10:52:18.953Z,1.00
2022-09-09T10:54:45.843Z,1.00
2022-09-09T10:57:39.591Z,1.00
2022-09-09T11:00:15.898Z,1.00
2022-09-09T11:02:45.496Z,1.00
2022-09-09T11:05:28.326Z,1.00
2022-09-09T11:08:19.454Z,1.00
2022-09-09T11:11:23.188Z,1.00
2022-09-09T11:13:53.208Z,1.00
2022-09-09T11:16:24.667Z,1.00
2022-09-09T11:18:55.221Z,1.00
2022-09-09T11:21:35.006Z,1.00
2022-09-09T11:24:13.813Z,1.00
2022-09-09T11:26:49.118Z,1.00
2022-09-09T11:29:40.482Z,1.00
2022-09-09T11:32:33.268Z,1.00
2022-09-09T11:35:32.042Z,1.00
2022-09-09T11:38:04.996Z,1.00
2022-09-09T11:40:33.218Z,1.00
2022-09-09T11:43:15.631Z,1.00
2022-09-09T11:45:44.451Z,1.00
2022-09-09T11:48:36.812Z,1.00
2022-09-09T11:51:17.114Z,1.00
2022-09-09T11:53:56.078Z,1.00
2022-09-09T11:56:55.820Z,1.00
2022-09-09T11:59:29.117Z,1.00
2022-09-09T12:02:03.979Z,1.00
2022-09-09T12:04:45.800Z,1.00
2022-09-09T12:07:12.786Z,1.00
2022-09-09T12:09:39.671Z,1.00
2022-09-09T12:12:31.024Z,1.00
2022-09-09T12:15:08.305Z,1.00
2022-09-09T12:18:03.264Z,1.00
2022-09-09T12:20:50.411Z,1.00
2022-09-09T12:23:27.165Z,1.00
2022-09-09T12:26:28.170Z,1.00
2022-09-09T12:28:58.314Z,1.00
2022-09-09T12:31:46.180Z,1.00
2022-09-09T12:34:29.512Z,1.00
2022-09-09T12:37:03.897Z,1.00
2022-09-09T12:39:36.759Z,1.00
2022-09-09T12:42:04.956Z,1.00
2022-09-09T12:44:33.293Z,1.00
2022-09-09T12:47:03.397Z,1.00
2022-09-09T12:49:40.209Z,1.00
2022-09-09T12:52:27.675Z,1.00
2022-09-09T12:54:55.225Z,1.00
2022-09-09T12:57:26.465Z,1.00
2022-09-09T12:59:54.283Z,1.00
2022-09-09T13:02:25.850Z,1.00
2022-09-09T13:04:54.863Z,1.00
2022-09-09T13:07:22.710Z,1.00
2022-09-09T13:09:50.335Z,1.00
2022-09-09T13:12:24.304Z,1.00
2022-09-09T13:14:55.076Z,1.00
2022-09-09T13:17:25.591Z,1.00
2022-09-09T13:19:54.243Z,1.00
2022-09-09T13:22:38.448Z,1.00
2022-09-09T13:25:12.433Z,1.00
2022-09-09T13:27:41.216Z,1.00
2022-09-09T13:30:31.139Z,1.00
2022-09-09T13:33:23.585Z,1.00
2022-09-09T13:36:11.749Z,1.00
2022-09-09T13:38:52.254Z,7.00
2022-09-09T13:41:31.562Z,11.90
2022-09-09T13:43:58.932Z,31.70
2022-09-09T13:46:44.062Z,47.10
2022-09-09T13:49:11.100Z,11.60
2022-09-09T13:51:40.948Z,26.00
2022-09-09T13:54:11.144Z,10.80
2022-09-09T13:56:40.222Z,10.60
2022-09-09T13:59:12.421Z,1.00
2022-09-09T14:01:39.486Z,1.00
2022-09-09T14:04:07.528Z,1.00
2022-09-09T14:06:39.184Z,1.00
2022-09-09T14:09:07.060Z,1.00
2022-09-09T14:11:33.970Z,1.00
2022-09-09T14:14:01.949Z,1.00
2022-09-09T14:16:30.453Z,45.40
2022-09-09T14:18:58.094Z,99.90
2022-09-09T14:21:25.264Z,93.50
2022-09-09T14:23:53.773Z,45.90
2022-09-09T14:26:25.145Z,54.50
2022-09-09T14:28:56.403Z,50.80
2022-09-09T14:31:26.949Z,61.10
2022-09-09T14:33:54.113Z,56.00
2022-09-09T14:36:21.356Z,52.40
2022-09-09T14:38:49.183Z,47.60
2022-09-09T14:41:18.720Z,27.60
2022-09-09T14:43:46.851Z,44.20
2022-09-09T14:46:15.988Z,25.40
2022-09-09T14:48:43.353Z,18.60
2022-09-09T14:51:13.701Z,9.70
2022-09-09T14:53:41.727Z,1.50
2022-09-09T14:56:11.153Z,7.80
2022-09-09T14:58:39.017Z,19.50
2022-09-09T15:01:11.935Z,17.30
2022-09-09T15:03:40.718Z,17.40
2022-09-09T15:06:17.737Z,43.60
2022-09-09T15:08:46.290Z,32.10
2022-09-09T15:11:15.391Z,30.60
2022-09-09T15:13:44.568Z,33.50
2022-09-09T15:16:17.104Z,47.50
2022-09-09T15:18:45.930Z,43.40
2022-09-09T15:21:14.201Z,31.30
2022-09-09T15:23:41.370Z,17.10
2022-09-09T15:26:09.067Z,27.30
2022-09-09T15:28:40.311Z,2.50
2022-09-09T15:31:18.588Z,1.00
2022-09-09T15:34:03.302Z,1.00
2022-09-09T15:36:37.813Z,1.00
2022-09-09T15:39:07.212Z,1.00
2022-09-09T15:41:34.315Z,1.00
2022-09-09T15:44:02.015Z,1.00
2022-09-09T15:46:37.372Z,1.00
2022-09-09T15:49:10.380Z,1.00
2022-09-09T15:51:43.103Z,1.00
2022-09-09T15:54:13.296Z,16.20
2022-09-09T15:56:41.435Z,37.10
2022-09-09T15:59:08.690Z,44.70
2022-09-09T16:01:37.476Z,57.40
2022-09-09T16:04:05.040Z,93.30
2022-09-09T16:06:32.691Z,99.90
2022-09-09T16:09:01.960Z,99.90
2022-09-09T16:11:36.050Z,99.90
2022-09-09T16:14:06.321Z,99.90
2022-09-09T16:16:33.994Z,99.90
2022-09-09T16:19:06.077Z,99.90
2022-09-09T16:21:47.874Z,99.90
2022-09-09T16:24:18.803Z,99.90
2022-09-09T16:26:49.826Z,99.90
2022-09-09T16:29:18.387Z,1.00
2022-09-09T16:31:47.672Z,1.00
2022-09-09T16:34:16.359Z,1.00
2022-09-09T16:36:45.010Z,1.00
2022-09-09T16:39:16.746Z,1.00
2022-09-09T16:41:45.984Z,1.00
2022-09-09T16:44:14.538Z,1.00
2022-09-09T16:46:43.347Z,1.00
2022-09-09T16:49:12.533Z,1.00
2022-09-09T16:51:48.233Z,1.00
2022-09-09T16:54:17.106Z,99.90
2022-09-09T16:56:47.552Z,62.90
2022-09-09T16:59:16.645Z,1.00
2022-09-09T17:01:45.192Z,14.70
2022-09-09T17:04:17.195Z,99.90
2022-09-09T17:06:47.918Z,99.90
2022-09-09T17:09:14.809Z,99.90
2022-09-09T17:11:42.547Z,1.00
2022-09-09T17:14:14.568Z,1.00
2022-09-09T17:16:41.500Z,99.90
2022-09-09T17:19:10.044Z,1.00
2022-09-09T17:21:49.664Z,1.00
2022-09-09T17:24:24.640Z,32.50
2022-09-09T17:26:51.617Z,1.00
2022-09-09T17:29:18.773Z,1.00
2022-09-09T17:31:45.686Z,1.00
2022-09-09T17:34:12.556Z,1.00
2022-09-09T17:36:40.701Z,1.00
2022-09-09T17:39:07.935Z,1.00
2022-09-09T17:41:37.698Z,1.00
2022-09-09T17:44:06.030Z,1.00
2022-09-09T17:46:38.522Z,1.00
2022-09-09T17:49:09.747Z,1.00
2022-09-09T17:51:37.453Z,1.00
2022-09-09T17:54:08.611Z,1.00
2022-09-09T17:56:36.960Z,1.00
2022-09-09T17:59:06.330Z,1.00
2022-09-09T18:01:36.249Z,1.00
2022-09-09T18:04:06.107Z,1.00
2022-09-09T18:06:38.927Z,1.00
2022-09-09T18:09:10.869Z,19.90
2022-09-09T18:11:43.112Z,99.90
2022-09-09T18:14:13.002Z,99.90
2022-09-09T18:16:40.985Z,99.90
2022-09-09T18:19:12.426Z,99.90
2022-09-09T18:21:42.123Z,99.90
2022-09-09T18:24:10.425Z,99.90
2022-09-09T18:26:40.307Z,99.90
2022-09-09T18:29:11.168Z,99.90
2022-09-09T18:31:38.940Z,99.90
2022-09-09T18:34:08.414Z,99.90
2022-09-09T18:36:39.759Z,1.00
2022-09-09T18:39:08.072Z,1.00
2022-09-09T18:41:37.836Z,1.00
2022-09-09T18:44:09.176Z,1.00
2022-09-09T18:46:37.459Z,1.00
2022-09-09T18:49:05.829Z,1.00
2022-09-09T18:51:35.296Z,1.00
2022-09-09T18:54:09.336Z,1.00
2022-09-09T18:56:36.659Z,1.00
2022-09-09T18:59:06.614Z,1.00
2022-09-09T19:01:35.594Z,1.00
2022-09-09T19:04:04.480Z,1.00
2022-09-09T19:06:32.676Z,1.00
2022-09-09T19:09:03.199Z,1.00
2022-09-09T19:11:31.626Z,1.00
2022-09-09T19:14:03.930Z,1.00
2022-09-09T19:16:33.242Z,1.00
2022-09-09T19:19:03.143Z,1.00
2022-09-09T19:21:38.862Z,1.00
2022-09-09T19:24:15.946Z,1.00
2022-09-09T19:26:45.741Z,1.00
2022-09-09T19:29:19.343Z,1.00
2022-09-09T19:32:06.525Z,1.00
2022-09-09T19:34:34.216Z,1.00
2022-09-09T19:37:01.311Z,1.00
2022-09-09T19:39:28.398Z,1.00
2022-09-09T19:41:55.305Z,1.00
2022-09-09T19:44:22.585Z,1.00
2022-09-09T19:46:49.988Z,1.00
2022-09-09T19:49:17.647Z,99.90
2022-09-09T19:51:46.218Z,99.90
2022-09-09T19:54:16.321Z,99.90
2022-09-09T19:56:44.964Z,99.90
2022-09-09T19:59:13.211Z,99.90
2022-09-09T20:01:44.726Z,99.90
2022-09-09T20:04:12.522Z,1.00
2022-09-09T20:06:41.717Z,1.00
2022-09-09T20:09:14.418Z,1.00
2022-09-09T20:11:41.943Z,1.00
2022-09-09T20:14:09.288Z,1.00
2022-09-09T20:16:36.244Z,1.00
2022-09-09T20:19:06.074Z,1.00
2022-09-09T20:21:35.124Z,1.00
2022-09-09T20:24:05.829Z,1.00
2022-09-09T20:26:35.182Z,1.00
2022-09-09T20:29:07.817Z,1.00
2022-09-09T20:31:37.145Z,1.00
2022-09-09T20:34:06.065Z,1.00
2022-09-09T20:36:35.436Z,1.00
2022-09-09T20:39:11.870Z,1.00
2022-09-09T20:41:40.836Z,1.00
2022-09-09T20:44:12.390Z,1.00
2022-09-09T20:46:43.010Z,1.00
2022-09-09T20:49:11.483Z,1.00
2022-09-09T20:51:38.817Z,1.00
2022-09-09T20:54:14.763Z,1.00
2022-09-09T20:56:43.333Z,1.00
2022-09-09T20:59:14.173Z,1.00
2022-09-09T21:01:42.183Z,1.00
2022-09-09T21:04:09.757Z,1.00
2022-09-09T21:06:37.157Z,1.00
2022-09-09T21:09:04.726Z,1.00
2022-09-09T21:11:31.677Z,99.90
2022-09-09T21:13:59.662Z,99.90
2022-09-09T21:16:27.844Z,99.90
2022-09-09T21:18:55.447Z,99.90
2022-09-09T21:21:22.598Z,99.90
2022-09-09T21:23:50.503Z,99.90
2022-09-09T21:26:19.572Z,99.90
2022-09-09T21:28:46.550Z,99.90
2022-09-09T21:31:18.734Z,99.90
2022-09-09T21:33:46.262Z,99.90
2022-09-09T21:36:14.306Z,99.90
2022-09-09T21:38:42.047Z,99.90
2022-09-09T21:41:13.076Z,99.90
2022-09-09T21:43:44.613Z,1.00
2022-09-09T21:46:15.108Z,1.00
2022-09-09T21:48:42.341Z,1.00
2022-09-09T21:51:12.256Z,99.90
2022-09-09T21:53:39.887Z,99.90
2022-09-09T21:56:10.789Z,1.00
2022-09-09T21:58:38.343Z,99.90
2022-09-09T22:01:17.004Z,99.90
2022-09-09T22:03:44.132Z,99.90
2022-09-09T22:06:14.672Z,99.90
2022-09-09T22:08:42.714Z,1.00
2022-09-09T22:11:17.405Z,99.90
2022-09-09T22:13:47.952Z,1.00
2022-09-09T22:16:18.074Z,1.00
2022-09-09T22:18:45.428Z,1.00
2022-09-09T22:21:15.141Z,1.00
2022-09-09T22:23:42.147Z,1.00
2022-09-09T22:26:09.742Z,1.00
2022-09-09T22:28:38.446Z,1.00
2022-09-09T22:31:05.994Z,1.00
2022-09-09T22:33:33.568Z,1.00
2022-09-09T22:36:00.678Z,1.00
2022-09-09T22:38:27.533Z,1.00
2022-09-09T22:40:54.640Z,1.00
2022-09-09T22:43:22.410Z,1.00
2022-09-09T22:45:50.873Z,1.00
2022-09-09T22:48:18.235Z,1.00
2022-09-09T22:50:45.737Z,1.00
2022-09-09T22:53:17.475Z,1.00
2022-09-09T22:55:59.407Z,1.00
2022-09-09T22:58:31.846Z,1.00
2022-09-09T23:00:59.688Z,1.00
2022-09-09T23:03:28.303Z,1.00
2022-09-09T23:05:57.509Z,1.00
2022-09-09T23:08:36.551Z,1.00
2022-09-09T23:11:09.216Z,1.00
2022-09-09T23:13:43.666Z,1.00
2022-09-09T23:16:12.090Z,1.00
2022-09-09T23:18:43.601Z,1.00
2022-09-09T23:21:12.358Z,1.00
2022-09-09T23:23:41.303Z,1.00
2022-09-09T23:26:10.383Z,1.00
2022-09-09T23:28:41.928Z,1.00
2022-09-09T23:31:10.294Z,1.00
2022-09-09T23:33:37.349Z,1.00
2022-09-09T23:36:08.434Z,1.00
2022-09-09T23:38:38.038Z,1.00
2022-09-09T23:41:08.162Z,99.90
2022-09-09T23:43:39.554Z,1.00
2022-09-09T23:46:11.501Z,99.90
2022-09-09T23:48:39.245Z,99.90
2022-09-09T23:51:09.459Z,99.90
2022-09-09T23:53:37.384Z,99.90
2022-09-09T23:56:05.203Z,99.90
2022-09-09T23:58:33.039Z,99.90
